sensor_id;sensor_type;location;lat;lon;timestamp;P1;durP1;ratioP1;P2;durP2;ratioP2
57893;SDS011;43710;47.460;19.034;2023-04-21T04:02:35;14.00;;;4.35;;
57893;SDS011;43710;47.460;19.034;2023-04-21T04:05:39;8.13;;;4.00;;
57893;SDS011;43710;47.460;19.034;2023-04-21T04:08:41;11.30;;;4.55;;
57893;SDS011;43710;47.460;19.034;2023-04-21T04:11:43;14.45;;;4.35;;
57893;SDS011;43710;47.460;19.034;2023-04-21T04:14:45;12.30;;;4.12;;
57893;SDS011;43710;47.460;19.034;2023-04-21T04:17:48;10.40;;;4.45;;
57893;SDS011;43710;47.460;19.034;2023-04-21T04:20:50;10.70;;;4.20;;
57893;SDS011;43710;47.460;19.034;2023-04-21T04:23:52;9.85;;;4.37;;
57893;SDS011;43710;47.460;19.034;2023-04-21T04:26:55;10.95;;;5.15;;
57893;SDS011;43710;47.460;19.034;2023-04-21T04:29:59;9.88;;;4.32;;
57893;SDS011;43710;47.460;19.034;2023-04-21T04:33:01;14.80;;;4.57;;
57893;SDS011;43710;47.460;19.034;2023-04-21T04:36:03;10.18;;;4.55;;
57893;SDS011;43710;47.460;19.034;2023-04-21T04:39:06;9.55;;;4.28;;
57893;SDS011;43710;47.460;19.034;2023-04-21T04:42:10;11.10;;;5.07;;
57893;SDS011;43710;47.460;19.034;2023-04-21T04:45:13;14.48;;;4.55;;
57893;SDS011;43710;47.460;19.034;2023-04-21T04:48:17;11.63;;;5.05;;
57893;SDS011;43710;47.460;19.034;2023-04-21T04:51:20;11.07;;;4.55;;
57893;SDS011;43710;47.460;19.034;2023-04-21T04:54:22;10.20;;;5.25;;
57893;SDS011;43710;47.460;19.034;2023-04-21T04:57:25;15.60;;;5.45;;
57893;SDS011;43710;47.460;19.034;2023-04-21T05:00:28;11.05;;;5.00;;
57893;SDS011;43710;47.460;19.034;2023-04-21T05:03:30;14.55;;;4.85;;
57893;SDS011;43710;47.460;19.034;2023-04-21T05:06:33;17.45;;;5.12;;
57893;SDS011;43710;47.460;19.034;2023-04-21T05:09:35;10.32;;;4.50;;
57893;SDS011;43710;47.460;19.034;2023-04-21T05:12:37;19.35;;;5.15;;
57893;SDS011;43710;47.460;19.034;2023-04-21T05:15:39;18.27;;;5.22;;
57893;SDS011;43710;47.460;19.034;2023-04-21T05:18:42;12.25;;;4.70;;
57893;SDS011;43710;47.460;19.034;2023-04-21T05:21:44;10.45;;;4.62;;
57893;SDS011;43710;47.460;19.034;2023-04-21T05:24:47;13.48;;;5.18;;
57893;SDS011;43710;47.460;19.034;2023-04-21T05:27:49;15.43;;;4.70;;
57893;SDS011;43710;47.460;19.034;2023-04-21T05:30:51;13.77;;;5.28;;
57893;SDS011;43710;47.460;19.034;2023-04-21T05:33:53;9.75;;;4.70;;
57893;SDS011;43710;47.460;19.034;2023-04-21T05:36:56;12.93;;;4.68;;
57893;SDS011;43710;47.460;19.034;2023-04-21T05:40:00;10.02;;;4.70;;
57893;SDS011;43710;47.460;19.034;2023-04-21T05:43:02;10.05;;;4.78;;
57893;SDS011;43710;47.460;19.034;2023-04-21T05:46:07;16.98;;;5.45;;
57893;SDS011;43710;47.460;19.034;2023-04-21T05:49:11;16.65;;;5.25;;
57893;SDS011;43710;47.460;19.034;2023-04-21T05:52:13;12.65;;;4.90;;
57893;SDS011;43710;47.460;19.034;2023-04-21T05:55:15;20.37;;;5.47;;
57893;SDS011;43710;47.460;19.034;2023-04-21T05:58:17;17.52;;;5.40;;
57893;SDS011;43710;47.460;19.034;2023-04-21T06:01:27;11.50;;;5.15;;
57893;SDS011;43710;47.460;19.034;2023-04-21T06:08:06;14.82;;;4.82;;
57893;SDS011;43710;47.460;19.034;2023-04-21T06:11:39;11.65;;;4.80;;
57893;SDS011;43710;47.460;19.034;2023-04-21T06:14:48;10.40;;;4.60;;
57893;SDS011;43710;47.460;19.034;2023-04-21T06:18:19;15.27;;;5.12;;
57893;SDS011;43710;47.460;19.034;2023-04-21T06:21:48;12.82;;;5.07;;
57893;SDS011;43710;47.460;19.034;2023-04-21T06:24:57;9.05;;;4.87;;
57893;SDS011;43710;47.460;19.034;2023-04-21T06:28:26;12.57;;;4.93;;
57893;SDS011;43710;47.460;19.034;2023-04-21T06:31:35;13.10;;;4.32;;
57893;SDS011;43710;47.460;19.034;2023-04-21T06:34:57;12.60;;;4.65;;
57893;SDS011;43710;47.460;19.034;2023-04-21T06:38:00;15.63;;;4.95;;
57893;SDS011;43710;47.460;19.034;2023-04-21T06:41:02;9.77;;;4.75;;
57893;SDS011;43710;47.460;19.034;2023-04-21T06:44:05;11.85;;;4.35;;
57893;SDS011;43710;47.460;19.034;2023-04-21T06:47:07;18.37;;;5.20;;
57893;SDS011;43710;47.460;19.034;2023-04-21T06:50:10;13.68;;;4.37;;
57893;SDS011;43710;47.460;19.034;2023-04-21T06:53:13;12.93;;;4.55;;
57893;SDS011;43710;47.460;19.034;2023-04-21T06:56:15;12.85;;;4.20;;
57893;SDS011;43710;47.460;19.034;2023-04-21T06:59:17;16.10;;;4.25;;
57893;SDS011;43710;47.460;19.034;2023-04-21T07:02:20;11.10;;;5.15;;
57893;SDS011;43710;47.460;19.034;2023-04-21T07:05:22;11.88;;;3.72;;
57893;SDS011;43710;47.460;19.034;2023-04-21T07:08:25;9.63;;;4.00;;
57893;SDS011;43710;47.460;19.034;2023-04-21T07:11:27;9.48;;;3.53;;
57893;SDS011;43710;47.460;19.034;2023-04-21T07:14:29;13.05;;;4.37;;
57893;SDS011;43710;47.460;19.034;2023-04-21T07:17:31;12.50;;;3.95;;
57893;SDS011;43710;47.460;19.034;2023-04-21T07:20:34;14.65;;;4.00;;
57893;SDS011;43710;47.460;19.034;2023-04-21T07:23:36;12.77;;;4.00;;
57893;SDS011;43710;47.460;19.034;2023-04-21T07:26:39;11.85;;;3.95;;
57893;SDS011;43710;47.460;19.034;2023-04-21T07:29:41;16.33;;;4.10;;
57893;SDS011;43710;47.460;19.034;2023-04-21T07:32:45;10.75;;;3.78;;
57893;SDS011;43710;47.460;19.034;2023-04-21T07:35:47;15.88;;;4.43;;
57893;SDS011;43710;47.460;19.034;2023-04-21T07:38:50;14.55;;;4.15;;
57893;SDS011;43710;47.460;19.034;2023-04-21T07:41:52;15.68;;;4.03;;
57893;SDS011;43710;47.460;19.034;2023-04-21T07:44:55;14.40;;;4.40;;
57893;SDS011;43710;47.460;19.034;2023-04-21T07:47:58;10.88;;;4.00;;
57893;SDS011;43710;47.460;19.034;2023-04-21T07:51:00;14.63;;;3.85;;
57893;SDS011;43710;47.460;19.034;2023-04-21T07:54:04;14.27;;;4.60;;
57893;SDS011;43710;47.460;19.034;2023-04-21T07:57:06;17.70;;;3.65;;
57893;SDS011;43710;47.460;19.034;2023-04-21T08:00:09;16.65;;;4.37;;
57893;SDS011;43710;47.460;19.034;2023-04-21T08:03:13;12.63;;;3.80;;
57893;SDS011;43710;47.460;19.034;2023-04-21T08:06:15;12.23;;;3.60;;
57893;SDS011;43710;47.460;19.034;2023-04-21T08:09:18;10.88;;;3.20;;
57893;SDS011;43710;47.460;19.034;2023-04-21T08:12:21;11.23;;;4.00;;
57893;SDS011;43710;47.460;19.034;2023-04-21T08:15:23;12.60;;;4.18;;
57893;SDS011;43710;47.460;19.034;2023-04-21T08:18:25;15.77;;;3.65;;
57893;SDS011;43710;47.460;19.034;2023-04-21T08:21:28;16.25;;;3.47;;
57893;SDS011;43710;47.460;19.034;2023-04-21T08:24:32;12.37;;;4.00;;
57893;SDS011;43710;47.460;19.034;2023-04-21T08:27:38;13.27;;;4.03;;
57893;SDS011;43710;47.460;19.034;2023-04-21T08:30:41;16.85;;;4.05;;
57893;SDS011;43710;47.460;19.034;2023-04-21T08:33:43;14.57;;;3.83;;
57893;SDS011;43710;47.460;19.034;2023-04-21T08:37:02;11.38;;;3.70;;
57893;SDS011;43710;47.460;19.034;2023-04-21T08:40:05;10.40;;;3.95;;
57893;SDS011;43710;47.460;19.034;2023-04-21T08:43:08;9.43;;;3.45;;
57893;SDS011;43710;47.460;19.034;2023-04-21T08:46:10;13.68;;;3.90;;
57893;SDS011;43710;47.460;19.034;2023-04-21T08:49:14;15.95;;;3.58;;
57893;SDS011;43710;47.460;19.034;2023-04-21T08:52:20;17.00;;;3.95;;
57893;SDS011;43710;47.460;19.034;2023-04-21T08:55:28;13.73;;;4.30;;
57893;SDS011;43710;47.460;19.034;2023-04-21T08:58:31;30.52;;;4.62;;
57893;SDS011;43710;47.460;19.034;2023-04-21T09:02:04;14.48;;;4.40;;
57893;SDS011;43710;47.460;19.034;2023-04-21T09:05:23;20.45;;;4.93;;
57893;SDS011;43710;47.460;19.034;2023-04-21T09:08:29;13.57;;;4.18;;
57893;SDS011;43710;47.460;19.034;2023-04-21T09:11:33;17.05;;;4.65;;
57893;SDS011;43710;47.460;19.034;2023-04-21T09:14:36;18.73;;;4.60;;
57893;SDS011;43710;47.460;19.034;2023-04-21T09:17:38;15.13;;;4.55;;
57893;SDS011;43710;47.460;19.034;2023-04-21T09:20:41;13.65;;;4.55;;
57893;SDS011;43710;47.460;19.034;2023-04-21T09:23:48;11.88;;;4.70;;
57893;SDS011;43710;47.460;19.034;2023-04-21T09:26:54;13.07;;;4.95;;
57893;SDS011;43710;47.460;19.034;2023-04-21T09:30:03;14.15;;;4.28;;
57893;SDS011;43710;47.460;19.034;2023-04-21T09:33:15;14.20;;;4.95;;
57893;SDS011;43710;47.460;19.034;2023-04-21T09:36:33;10.27;;;4.80;;
57893;SDS011;43710;47.460;19.034;2023-04-21T09:39:35;11.02;;;4.70;;
57893;SDS011;43710;47.460;19.034;2023-04-21T09:42:58;8.93;;;4.57;;
57893;SDS011;43710;47.460;19.034;2023-04-21T09:46:01;16.20;;;5.00;;
57893;SDS011;43710;47.460;19.034;2023-04-21T09:49:06;20.60;;;5.25;;
57893;SDS011;43710;47.460;19.034;2023-04-21T09:52:12;16.25;;;5.22;;
57893;SDS011;43710;47.460;19.034;2023-04-21T09:55:25;10.38;;;5.05;;
57893;SDS011;43710;47.460;19.034;2023-04-21T09:58:32;10.75;;;4.43;;
57893;SDS011;43710;47.460;19.034;2023-04-21T10:01:38;11.80;;;5.70;;
57893;SDS011;43710;47.460;19.034;2023-04-21T10:04:43;13.60;;;4.93;;
57893;SDS011;43710;47.460;19.034;2023-04-21T10:07:46;9.32;;;4.62;;
57893;SDS011;43710;47.460;19.034;2023-04-21T10:10:49;10.45;;;5.20;;
57893;SDS011;43710;47.460;19.034;2023-04-21T10:13:58;10.48;;;5.35;;
57893;SDS011;43710;47.460;19.034;2023-04-21T10:17:07;13.05;;;5.25;;
57893;SDS011;43710;47.460;19.034;2023-04-21T10:20:10;8.98;;;4.90;;
57893;SDS011;43710;47.460;19.034;2023-04-21T10:23:28;12.35;;;5.10;;
57893;SDS011;43710;47.460;19.034;2023-04-21T10:26:34;6.85;;;4.95;;
57893;SDS011;43710;47.460;19.034;2023-04-21T10:29:36;9.73;;;5.03;;
57893;SDS011;43710;47.460;19.034;2023-04-21T10:32:44;9.48;;;5.15;;
57893;SDS011;43710;47.460;19.034;2023-04-21T10:35:57;13.23;;;4.78;;
57893;SDS011;43710;47.460;19.034;2023-04-21T10:39:02;10.43;;;4.93;;
57893;SDS011;43710;47.460;19.034;2023-04-21T10:45:14;10.77;;;5.53;;
57893;SDS011;43710;47.460;19.034;2023-04-21T10:48:18;13.93;;;5.25;;
57893;SDS011;43710;47.460;19.034;2023-04-21T10:51:23;9.32;;;5.37;;
57893;SDS011;43710;47.460;19.034;2023-04-21T10:54:26;12.75;;;5.65;;
57893;SDS011;43710;47.460;19.034;2023-04-21T10:57:53;12.50;;;5.55;;
57893;SDS011;43710;47.460;19.034;2023-04-21T11:00:57;10.80;;;5.20;;
57893;SDS011;43710;47.460;19.034;2023-04-21T11:04:00;9.23;;;5.47;;
57893;SDS011;43710;47.460;19.034;2023-04-21T11:07:13;10.25;;;5.65;;
57893;SDS011;43710;47.460;19.034;2023-04-21T11:10:17;12.20;;;5.70;;
57893;SDS011;43710;47.460;19.034;2023-04-21T11:13:21;9.63;;;5.90;;
57893;SDS011;43710;47.460;19.034;2023-04-21T11:16:24;8.43;;;5.50;;
57893;SDS011;43710;47.460;19.034;2023-04-21T11:19:27;13.57;;;5.90;;
57893;SDS011;43710;47.460;19.034;2023-04-21T11:22:32;9.32;;;5.62;;
57893;SDS011;43710;47.460;19.034;2023-04-21T11:25:35;10.93;;;5.30;;
57893;SDS011;43710;47.460;19.034;2023-04-21T11:28:39;8.25;;;5.60;;
57893;SDS011;43710;47.460;19.034;2023-04-21T11:31:44;14.68;;;6.03;;
57893;SDS011;43710;47.460;19.034;2023-04-21T11:34:49;9.82;;;5.40;;
57893;SDS011;43710;47.460;19.034;2023-04-21T11:37:53;13.10;;;5.90;;
57893;SDS011;43710;47.460;19.034;2023-04-21T11:40:56;12.75;;;6.90;;
57893;SDS011;43710;47.460;19.034;2023-04-21T11:44:00;9.75;;;5.90;;
57893;SDS011;43710;47.460;19.034;2023-04-21T11:47:16;10.63;;;6.55;;
57893;SDS011;43710;47.460;19.034;2023-04-21T11:50:29;9.18;;;5.07;;
57893;SDS011;43710;47.460;19.034;2023-04-21T11:53:36;8.93;;;5.03;;
57893;SDS011;43710;47.460;19.034;2023-04-21T11:56:44;14.75;;;6.20;;
57893;SDS011;43710;47.460;19.034;2023-04-21T11:59:48;10.82;;;5.37;;
57893;SDS011;43710;47.460;19.034;2023-04-21T12:02:54;12.63;;;5.80;;
57893;SDS011;43710;47.460;19.034;2023-04-21T12:05:58;9.02;;;5.10;;
57893;SDS011;43710;47.460;19.034;2023-04-21T12:09:01;11.32;;;5.57;;
57893;SDS011;43710;47.460;19.034;2023-04-21T12:12:04;12.25;;;5.82;;
57893;SDS011;43710;47.460;19.034;2023-04-21T12:15:07;10.30;;;5.97;;
57893;SDS011;43710;47.460;19.034;2023-04-21T12:18:12;11.48;;;5.35;;
57893;SDS011;43710;47.460;19.034;2023-04-21T12:21:15;11.85;;;5.85;;
57893;SDS011;43710;47.460;19.034;2023-04-21T12:24:17;11.07;;;5.97;;
57893;SDS011;43710;47.460;19.034;2023-04-21T12:27:19;14.15;;;5.87;;
57893;SDS011;43710;47.460;19.034;2023-04-21T12:30:22;13.18;;;6.43;;
57893;SDS011;43710;47.460;19.034;2023-04-21T12:33:24;12.30;;;5.72;;
57893;SDS011;43710;47.460;19.034;2023-04-21T12:36:27;12.07;;;6.35;;
57893;SDS011;43710;47.460;19.034;2023-04-21T12:39:29;9.27;;;5.60;;
57893;SDS011;43710;47.460;19.034;2023-04-21T12:42:33;10.98;;;5.20;;
57893;SDS011;43710;47.460;19.034;2023-04-21T12:45:38;9.70;;;6.47;;
57893;SDS011;43710;47.460;19.034;2023-04-21T12:48:40;14.65;;;6.43;;
57893;SDS011;43710;47.460;19.034;2023-04-21T12:51:43;11.60;;;6.05;;
57893;SDS011;43710;47.460;19.034;2023-04-21T12:54:45;11.73;;;5.93;;
57893;SDS011;43710;47.460;19.034;2023-04-21T12:57:48;11.80;;;6.32;;
57893;SDS011;43710;47.460;19.034;2023-04-21T13:00:51;11.52;;;6.35;;
57893;SDS011;43710;47.460;19.034;2023-04-21T13:03:53;13.52;;;6.28;;
57893;SDS011;43710;47.460;19.034;2023-04-21T13:06:56;12.48;;;5.75;;
57893;SDS011;43710;47.460;19.034;2023-04-21T13:09:58;11.45;;;6.07;;
57893;SDS011;43710;47.460;19.034;2023-04-21T13:13:01;8.88;;;6.12;;
57893;SDS011;43710;47.460;19.034;2023-04-21T13:16:03;9.52;;;6.37;;
57893;SDS011;43710;47.460;19.034;2023-04-21T13:19:06;13.90;;;6.43;;
57893;SDS011;43710;47.460;19.034;2023-04-21T13:22:08;12.10;;;6.45;;
57893;SDS011;43710;47.460;19.034;2023-04-21T13:25:11;9.93;;;6.22;;
57893;SDS011;43710;47.460;19.034;2023-04-21T13:28:13;11.18;;;5.90;;
57893;SDS011;43710;47.460;19.034;2023-04-21T13:31:16;11.02;;;5.45;;
57893;SDS011;43710;47.460;19.034;2023-04-21T13:34:18;14.10;;;6.40;;
57893;SDS011;43710;47.460;19.034;2023-04-21T13:37:21;10.18;;;5.45;;
57893;SDS011;43710;47.460;19.034;2023-04-21T13:40:23;8.60;;;5.47;;
57893;SDS011;43710;47.460;19.034;2023-04-21T13:43:26;9.27;;;5.97;;
57893;SDS011;43710;47.460;19.034;2023-04-21T13:46:28;8.45;;;5.68;;
57893;SDS011;43710;47.460;19.034;2023-04-21T13:49:30;9.80;;;5.82;;
57893;SDS011;43710;47.460;19.034;2023-04-21T13:52:33;11.15;;;5.60;;
57893;SDS011;43710;47.460;19.034;2023-04-21T13:55:37;11.15;;;5.65;;
57893;SDS011;43710;47.460;19.034;2023-04-21T13:58:40;17.20;;;6.55;;
57893;SDS011;43710;47.460;19.034;2023-04-21T14:01:42;11.82;;;5.50;;
57893;SDS011;43710;47.460;19.034;2023-04-21T14:04:45;10.65;;;5.30;;
57893;SDS011;43710;47.460;19.034;2023-04-21T14:07:48;10.38;;;5.60;;
57893;SDS011;43710;47.460;19.034;2023-04-21T14:10:50;9.75;;;5.40;;
57893;SDS011;43710;47.460;19.034;2023-04-21T14:13:53;11.43;;;5.82;;
57893;SDS011;43710;47.460;19.034;2023-04-21T14:17:10;11.12;;;6.30;;
57893;SDS011;43710;47.460;19.034;2023-04-21T14:20:13;10.70;;;5.60;;
57893;SDS011;43710;47.460;19.034;2023-04-21T14:23:15;8.77;;;6.22;;
57893;SDS011;43710;47.460;19.034;2023-04-21T14:26:17;9.98;;;5.93;;
57893;SDS011;43710;47.460;19.034;2023-04-21T14:29:21;13.38;;;5.97;;
57893;SDS011;43710;47.460;19.034;2023-04-21T14:32:24;15.07;;;5.82;;
57893;SDS011;43710;47.460;19.034;2023-04-21T14:35:27;7.35;;;5.45;;
57893;SDS011;43710;47.460;19.034;2023-04-21T14:38:29;6.55;;;5.75;;
57893;SDS011;43710;47.460;19.034;2023-04-21T14:41:32;12.90;;;6.37;;
57893;SDS011;43710;47.460;19.034;2023-04-21T14:44:34;10.68;;;6.03;;
57893;SDS011;43710;47.460;19.034;2023-04-21T14:47:36;11.35;;;6.18;;
57893;SDS011;43710;47.460;19.034;2023-04-21T14:50:39;11.48;;;5.82;;
57893;SDS011;43710;47.460;19.034;2023-04-21T14:53:42;11.10;;;6.30;;
57893;SDS011;43710;47.460;19.034;2023-04-21T14:56:44;7.53;;;5.70;;
57893;SDS011;43710;47.460;19.034;2023-04-21T14:59:50;9.75;;;5.85;;
57893;SDS011;43710;47.460;19.034;2023-04-21T15:02:53;11.10;;;5.82;;
57893;SDS011;43710;47.460;19.034;2023-04-21T15:05:55;9.20;;;5.45;;
57893;SDS011;43710;47.460;19.034;2023-04-21T15:08:59;11.60;;;5.70;;
57893;SDS011;43710;47.460;19.034;2023-04-21T15:12:02;11.25;;;5.68;;
57893;SDS011;43710;47.460;19.034;2023-04-21T15:15:04;9.95;;;5.72;;
57893;SDS011;43710;47.460;19.034;2023-04-21T15:18:07;12.95;;;6.15;;
57893;SDS011;43710;47.460;19.034;2023-04-21T15:21:09;12.00;;;6.03;;
57893;SDS011;43710;47.460;19.034;2023-04-21T15:24:12;9.73;;;6.15;;
57893;SDS011;43710;47.460;19.034;2023-04-21T15:27:14;8.85;;;5.50;;
57893;SDS011;43710;47.460;19.034;2023-04-21T15:30:17;11.12;;;6.22;;
57893;SDS011;43710;47.460;19.034;2023-04-21T15:33:19;9.65;;;5.72;;
57893;SDS011;43710;47.460;19.034;2023-04-21T15:36:22;11.82;;;6.10;;
